sensor_id;sensor_type;location;lat;lon;timestamp;P1;durP1;ratioP1;P2;durP2;ratioP2
25049;SDS011;13046;49.814;9.918;2023-05-09T00:01:20;23.88;;;19.15;;
25049;SDS011;13046;49.814;9.918;2023-05-09T00:03:45;21.58;;;19.42;;
25049;SDS011;13046;49.814;9.918;2023-05-09T00:06:11;20.75;;;18.55;;
25049;SDS011;13046;49.814;9.918;2023-05-09T00:08:37;19.60;;;17.67;;
25049;SDS011;13046;49.814;9.918;2023-05-09T00:11:03;22.05;;;19.75;;
25049;SDS011;13046;49.814;9.918;2023-05-09T00:13:29;21.70;;;19.48;;
25049;SDS011;13046;49.814;9.918;2023-05-09T00:15:55;20.67;;;18.50;;
25049;SDS011;13046;49.814;9.918;2023-05-09T00:18:21;18.48;;;16.65;;
25049;SDS011;13046;49.814;9.918;2023-05-09T00:20:48;19.83;;;17.65;;
25049;SDS011;13046;49.814;9.918;2023-05-09T00:23:14;19.63;;;17.63;;
25049;SDS011;13046;49.814;9.918;2023-05-09T00:25:40;18.92;;;17.02;;
25049;SDS011;13046;49.814;9.918;2023-05-09T00:28:07;19.70;;;17.77;;
25049;SDS011;13046;49.814;9.918;2023-05-09T00:30:33;19.92;;;17.20;;
25049;SDS011;13046;49.814;9.918;2023-05-09T00:32:59;19.27;;;17.13;;
25049;SDS011;13046;49.814;9.918;2023-05-09T00:35:25;20.13;;;16.60;;
25049;SDS011;13046;49.814;9.918;2023-05-09T00:37:50;19.00;;;17.05;;
25049;SDS011;13046;49.814;9.918;2023-05-09T00:40:16;18.33;;;16.35;;
25049;SDS011;13046;49.814;9.918;2023-05-09T00:42:42;18.92;;;17.05;;
25049;SDS011;13046;49.814;9.918;2023-05-09T00:45:08;19.20;;;17.02;;
25049;SDS011;13046;49.814;9.918;2023-05-09T00:47:34;19.30;;;17.30;;
25049;SDS011;13046;49.814;9.918;2023-05-09T00:50:00;18.95;;;17.02;;
25049;SDS011;13046;49.814;9.918;2023-05-09T00:52:26;18.38;;;16.65;;
25049;SDS011;13046;49.814;9.918;2023-05-09T00:54:52;17.85;;;15.75;;
25049;SDS011;13046;49.814;9.918;2023-05-09T00:57:19;17.10;;;15.43;;
25049;SDS011;13046;49.814;9.918;2023-05-09T00:59:46;19.20;;;16.95;;
25049;SDS011;13046;49.814;9.918;2023-05-09T01:02:12;17.75;;;15.93;;
25049;SDS011;13046;49.814;9.918;2023-05-09T01:04:39;19.25;;;16.73;;
25049;SDS011;13046;49.814;9.918;2023-05-09T01:07:23;19.30;;;17.40;;
25049;SDS011;13046;49.814;9.918;2023-05-09T01:13:14;18.35;;;16.42;;
25049;SDS011;13046;49.814;9.918;2023-05-09T01:15:45;18.25;;;16.35;;
25049;SDS011;13046;49.814;9.918;2023-05-09T01:29:36;18.35;;;16.58;;
25049;SDS011;13046;49.814;9.918;2023-05-09T01:32:18;17.92;;;16.10;;
25049;SDS011;13046;49.814;9.918;2023-05-09T01:34:50;29.23;;;17.33;;
25049;SDS011;13046;49.814;9.918;2023-05-09T01:37:18;18.77;;;16.92;;
25049;SDS011;13046;49.814;9.918;2023-05-09T01:39:50;16.63;;;15.02;;
25049;SDS011;13046;49.814;9.918;2023-05-09T01:42:18;17.10;;;15.40;;
25049;SDS011;13046;49.814;9.918;2023-05-09T01:44:45;17.33;;;15.63;;
25049;SDS011;13046;49.814;9.918;2023-05-09T01:47:11;17.80;;;15.82;;
25049;SDS011;13046;49.814;9.918;2023-05-09T01:49:40;17.60;;;15.82;;
25049;SDS011;13046;49.814;9.918;2023-05-09T01:52:07;17.83;;;16.05;;
25049;SDS011;13046;49.814;9.918;2023-05-09T01:54:37;17.50;;;15.02;;
25049;SDS011;13046;49.814;9.918;2023-05-09T01:57:05;18.83;;;15.07;;
25049;SDS011;13046;49.814;9.918;2023-05-09T01:59:32;16.38;;;14.70;;
25049;SDS011;13046;49.814;9.918;2023-05-09T02:02:00;16.27;;;14.70;;
25049;SDS011;13046;49.814;9.918;2023-05-09T02:04:27;17.02;;;15.30;;
25049;SDS011;13046;49.814;9.918;2023-05-09T02:06:55;18.00;;;16.20;;
25049;SDS011;13046;49.814;9.918;2023-05-09T02:09:23;17.65;;;15.88;;
25049;SDS011;13046;49.814;9.918;2023-05-09T02:11:48;17.75;;;15.57;;
25049;SDS011;13046;49.814;9.918;2023-05-09T02:14:14;17.77;;;15.68;;
25049;SDS011;13046;49.814;9.918;2023-05-09T02:16:40;18.13;;;16.25;;
25049;SDS011;13046;49.814;9.918;2023-05-09T02:19:07;16.70;;;15.05;;
25049;SDS011;13046;49.814;9.918;2023-05-09T02:21:32;16.73;;;15.13;;
25049;SDS011;13046;49.814;9.918;2023-05-09T02:23:58;18.27;;;15.32;;
25049;SDS011;13046;49.814;9.918;2023-05-09T02:26:24;20.65;;;16.88;;
25049;SDS011;13046;49.814;9.918;2023-05-09T02:28:50;16.65;;;14.93;;
25049;SDS011;13046;49.814;9.918;2023-05-09T02:31:18;18.67;;;16.38;;
25049;SDS011;13046;49.814;9.918;2023-05-09T02:33:46;16.50;;;14.80;;
25049;SDS011;13046;49.814;9.918;2023-05-09T02:36:13;16.92;;;14.90;;
25049;SDS011;13046;49.814;9.918;2023-05-09T02:38:40;14.68;;;13.18;;
25049;SDS011;13046;49.814;9.918;2023-05-09T02:41:10;16.38;;;14.27;;
25049;SDS011;13046;49.814;9.918;2023-05-09T02:43:40;16.60;;;15.00;;
25049;SDS011;13046;49.814;9.918;2023-05-09T02:46:06;17.15;;;15.35;;
25049;SDS011;13046;49.814;9.918;2023-05-09T02:48:32;18.65;;;15.20;;
25049;SDS011;13046;49.814;9.918;2023-05-09T02:50:58;15.80;;;14.15;;
25049;SDS011;13046;49.814;9.918;2023-05-09T02:53:24;17.10;;;15.45;;
25049;SDS011;13046;49.814;9.918;2023-05-09T02:55:50;18.02;;;15.60;;
25049;SDS011;13046;49.814;9.918;2023-05-09T02:58:15;16.98;;;15.27;;
25049;SDS011;13046;49.814;9.918;2023-05-09T03:00:42;17.02;;;15.38;;
25049;SDS011;13046;49.814;9.918;2023-05-09T03:03:09;19.15;;;14.07;;
25049;SDS011;13046;49.814;9.918;2023-05-09T03:05:35;15.52;;;14.02;;
25049;SDS011;13046;49.814;9.918;2023-05-09T03:08:01;16.95;;;15.35;;
25049;SDS011;13046;49.814;9.918;2023-05-09T03:10:26;16.10;;;14.43;;
25049;SDS011;13046;49.814;9.918;2023-05-09T03:12:52;16.73;;;14.88;;
25049;SDS011;13046;49.814;9.918;2023-05-09T03:15:18;17.25;;;14.35;;
25049;SDS011;13046;49.814;9.918;2023-05-09T03:17:46;15.98;;;14.45;;
25049;SDS011;13046;49.814;9.918;2023-05-09T03:20:11;17.20;;;15.60;;
25049;SDS011;13046;49.814;9.918;2023-05-09T03:22:37;17.17;;;15.57;;
25049;SDS011;13046;49.814;9.918;2023-05-09T03:25:05;17.30;;;15.60;;
25049;SDS011;13046;49.814;9.918;2023-05-09T03:27:31;17.23;;;15.40;;
25049;SDS011;13046;49.814;9.918;2023-05-09T03:29:58;17.17;;;15.32;;
25049;SDS011;13046;49.814;9.918;2023-05-09T03:32:25;17.77;;;16.08;;
25049;SDS011;13046;49.814;9.918;2023-05-09T03:34:51;14.68;;;13.27;;
25049;SDS011;13046;49.814;9.918;2023-05-09T03:37:16;17.20;;;15.30;;
25049;SDS011;13046;49.814;9.918;2023-05-09T03:39:42;15.77;;;14.27;;
25049;SDS011;13046;49.814;9.918;2023-05-09T03:42:08;16.58;;;14.98;;
25049;SDS011;13046;49.814;9.918;2023-05-09T03:44:34;18.52;;;15.60;;
25049;SDS011;13046;49.814;9.918;2023-05-09T03:46:59;17.27;;;14.98;;
25049;SDS011;13046;49.814;9.918;2023-05-09T03:49:29;15.20;;;13.55;;
25049;SDS011;13046;49.814;9.918;2023-05-09T03:51:55;15.15;;;13.57;;
25049;SDS011;13046;49.814;9.918;2023-05-09T03:54:20;20.73;;;16.60;;
25049;SDS011;13046;49.814;9.918;2023-05-09T03:56:46;18.75;;;15.88;;
25049;SDS011;13046;49.814;9.918;2023-05-09T03:59:12;17.38;;;15.02;;
25049;SDS011;13046;49.814;9.918;2023-05-09T04:01:38;17.20;;;15.45;;
25049;SDS011;13046;49.814;9.918;2023-05-09T04:04:04;17.58;;;15.00;;
25049;SDS011;13046;49.814;9.918;2023-05-09T04:06:33;17.45;;;15.65;;
25049;SDS011;13046;49.814;9.918;2023-05-09T04:09:00;17.98;;;15.30;;
25049;SDS011;13046;49.814;9.918;2023-05-09T04:11:26;18.27;;;16.27;;
25049;SDS011;13046;49.814;9.918;2023-05-09T04:13:53;17.48;;;15.68;;
25049;SDS011;13046;49.814;9.918;2023-05-09T04:16:29;17.48;;;15.77;;
25049;SDS011;13046;49.814;9.918;2023-05-09T04:18:55;18.00;;;14.93;;
25049;SDS011;13046;49.814;9.918;2023-05-09T04:21:20;17.17;;;15.48;;
25049;SDS011;13046;49.814;9.918;2023-05-09T04:23:48;16.45;;;14.85;;
25049;SDS011;13046;49.814;9.918;2023-05-09T04:26:16;19.38;;;15.98;;
25049;SDS011;13046;49.814;9.918;2023-05-09T04:28:45;18.15;;;16.20;;
25049;SDS011;13046;49.814;9.918;2023-05-09T04:31:13;23.35;;;17.13;;
25049;SDS011;13046;49.814;9.918;2023-05-09T04:33:41;19.17;;;17.33;;
25049;SDS011;13046;49.814;9.918;2023-05-09T04:36:06;25.20;;;21.73;;
25049;SDS011;13046;49.814;9.918;2023-05-09T04:38:33;21.02;;;18.92;;
25049;SDS011;13046;49.814;9.918;2023-05-09T04:41:00;20.48;;;18.25;;
25049;SDS011;13046;49.814;9.918;2023-05-09T04:43:25;18.10;;;15.85;;
25049;SDS011;13046;49.814;9.918;2023-05-09T04:45:52;19.73;;;17.70;;
25049;SDS011;13046;49.814;9.918;2023-05-09T04:48:18;23.40;;;20.67;;
25049;SDS011;13046;49.814;9.918;2023-05-09T04:50:44;20.02;;;17.70;;
25049;SDS011;13046;49.814;9.918;2023-05-09T04:53:12;25.60;;;22.45;;
25049;SDS011;13046;49.814;9.918;2023-05-09T04:55:39;38.95;;;29.67;;
25049;SDS011;13046;49.814;9.918;2023-05-09T04:58:05;38.90;;;30.20;;
25049;SDS011;13046;49.814;9.918;2023-05-09T05:00:30;33.67;;;27.58;;
25049;SDS011;13046;49.814;9.918;2023-05-09T05:02:57;30.33;;;25.15;;
25049;SDS011;13046;49.814;9.918;2023-05-09T05:05:24;21.73;;;18.98;;
25049;SDS011;13046;49.814;9.918;2023-05-09T05:07:50;22.92;;;19.65;;
25049;SDS011;13046;49.814;9.918;2023-05-09T05:10:20;23.05;;;20.45;;
25049;SDS011;13046;49.814;9.918;2023-05-09T05:12:50;23.75;;;20.92;;
25049;SDS011;13046;49.814;9.918;2023-05-09T05:15:16;22.10;;;19.90;;
25049;SDS011;13046;49.814;9.918;2023-05-09T05:17:45;23.67;;;21.42;;
25049;SDS011;13046;49.814;9.918;2023-05-09T05:20:11;21.70;;;19.42;;
25049;SDS011;13046;49.814;9.918;2023-05-09T05:22:43;21.80;;;19.50;;
25049;SDS011;13046;49.814;9.918;2023-05-09T05:25:08;25.60;;;21.17;;
25049;SDS011;13046;49.814;9.918;2023-05-09T05:27:35;21.63;;;19.45;;
25049;SDS011;13046;49.814;9.918;2023-05-09T05:30:01;22.90;;;20.30;;
25049;SDS011;13046;49.814;9.918;2023-05-09T05:32:27;21.38;;;18.02;;
25049;SDS011;13046;49.814;9.918;2023-05-09T05:34:53;23.40;;;19.98;;
25049;SDS011;13046;49.814;9.918;2023-05-09T05:37:18;21.83;;;19.63;;
25049;SDS011;13046;49.814;9.918;2023-05-09T05:39:45;22.15;;;19.95;;
25049;SDS011;13046;49.814;9.918;2023-05-09T05:42:11;21.85;;;19.48;;
25049;SDS011;13046;49.814;9.918;2023-05-09T05:44:37;21.67;;;19.45;;
25049;SDS011;13046;49.814;9.918;2023-05-09T05:47:03;21.00;;;18.90;;
25049;SDS011;13046;49.814;9.918;2023-05-09T05:49:29;21.25;;;19.10;;
25049;SDS011;13046;49.814;9.918;2023-05-09T05:51:55;23.10;;;20.73;;
25049;SDS011;13046;49.814;9.918;2023-05-09T05:54:20;22.17;;;19.77;;
25049;SDS011;13046;49.814;9.918;2023-05-09T05:56:46;30.65;;;21.30;;
25049;SDS011;13046;49.814;9.918;2023-05-09T05:59:12;22.23;;;19.70;;
25049;SDS011;13046;49.814;9.918;2023-05-09T06:01:37;19.98;;;17.77;;
25049;SDS011;13046;49.814;9.918;2023-05-09T06:04:03;20.80;;;18.58;;
25049;SDS011;13046;49.814;9.918;2023-05-09T06:06:31;22.55;;;20.33;;
25049;SDS011;13046;49.814;9.918;2023-05-09T06:08:56;21.13;;;18.92;;
25049;SDS011;13046;49.814;9.918;2023-05-09T06:11:22;21.95;;;18.65;;
25049;SDS011;13046;49.814;9.918;2023-05-09T06:13:48;25.08;;;20.50;;
25049;SDS011;13046;49.814;9.918;2023-05-09T06:16:13;20.63;;;18.50;;
25049;SDS011;13046;49.814;9.918;2023-05-09T06:18:39;19.80;;;17.75;;
25049;SDS011;13046;49.814;9.918;2023-05-09T06:21:05;21.55;;;17.92;;
25049;SDS011;13046;49.814;9.918;2023-05-09T06:23:31;20.45;;;17.02;;
25049;SDS011;13046;49.814;9.918;2023-05-09T06:25:57;21.52;;;17.83;;
25049;SDS011;13046;49.814;9.918;2023-05-09T06:28:23;19.42;;;17.40;;
25049;SDS011;13046;49.814;9.918;2023-05-09T06:30:48;18.77;;;16.83;;
25049;SDS011;13046;49.814;9.918;2023-05-09T06:33:14;19.88;;;16.90;;
25049;SDS011;13046;49.814;9.918;2023-05-09T06:35:40;20.58;;;17.25;;
25049;SDS011;13046;49.814;9.918;2023-05-09T06:38:05;19.15;;;17.05;;
25049;SDS011;13046;49.814;9.918;2023-05-09T06:40:31;17.15;;;15.35;;
25049;SDS011;13046;49.814;9.918;2023-05-09T06:42:57;17.52;;;15.80;;
25049;SDS011;13046;49.814;9.918;2023-05-09T06:45:23;17.45;;;14.88;;
25049;SDS011;13046;49.814;9.918;2023-05-09T06:47:48;17.85;;;16.15;;
25049;SDS011;13046;49.814;9.918;2023-05-09T06:50:14;16.38;;;14.77;;
25049;SDS011;13046;49.814;9.918;2023-05-09T06:52:40;24.95;;;16.55;;
25049;SDS011;13046;49.814;9.918;2023-05-09T06:55:06;15.10;;;13.73;;
25049;SDS011;13046;49.814;9.918;2023-05-09T06:57:32;12.73;;;11.43;;
25049;SDS011;13046;49.814;9.918;2023-05-09T06:59:58;13.25;;;12.05;;
25049;SDS011;13046;49.814;9.918;2023-05-09T07:02:23;11.75;;;10.73;;
25049;SDS011;13046;49.814;9.918;2023-05-09T07:04:49;13.88;;;11.45;;
25049;SDS011;13046;49.814;9.918;2023-05-09T07:07:15;13.98;;;12.68;;
25049;SDS011;13046;49.814;9.918;2023-05-09T07:09:41;12.60;;;10.60;;
25049;SDS011;13046;49.814;9.918;2023-05-09T07:12:06;13.25;;;11.95;;
25049;SDS011;13046;49.814;9.918;2023-05-09T07:14:32;12.05;;;10.95;;
25049;SDS011;13046;49.814;9.918;2023-05-09T07:16:58;12.23;;;11.13;;
25049;SDS011;13046;49.814;9.918;2023-05-09T07:19:23;11.77;;;10.80;;
25049;SDS011;13046;49.814;9.918;2023-05-09T07:21:49;12.40;;;11.10;;
25049;SDS011;13046;49.814;9.918;2023-05-09T07:24:15;13.95;;;12.48;;
25049;SDS011;13046;49.814;9.918;2023-05-09T07:26:40;12.25;;;11.05;;
25049;SDS011;13046;49.814;9.918;2023-05-09T07:29:06;12.68;;;11.52;;
25049;SDS011;13046;49.814;9.918;2023-05-09T07:31:31;11.38;;;10.27;;
25049;SDS011;13046;49.814;9.918;2023-05-09T07:33:57;14.20;;;12.02;;
25049;SDS011;13046;49.814;9.918;2023-05-09T07:36:23;11.52;;;10.38;;
25049;SDS011;13046;49.814;9.918;2023-05-09T07:38:48;12.68;;;11.48;;
25049;SDS011;13046;49.814;9.918;2023-05-09T07:41:16;14.75;;;11.73;;
25049;SDS011;13046;49.814;9.918;2023-05-09T07:43:42;13.20;;;11.85;;
25049;SDS011;13046;49.814;9.918;2023-05-09T07:46:08;12.10;;;11.00;;
25049;SDS011;13046;49.814;9.918;2023-05-09T07:48:34;12.60;;;11.50;;
25049;SDS011;13046;49.814;9.918;2023-05-09T07:50:59;12.45;;;11.25;;
25049;SDS011;13046;49.814;9.918;2023-05-09T07:53:25;12.95;;;11.30;;
25049;SDS011;13046;49.814;9.918;2023-05-09T07:55:51;12.63;;;11.43;;
25049;SDS011;13046;49.814;9.918;2023-05-09T07:58:16;12.05;;;10.95;;
25049;SDS011;13046;49.814;9.918;2023-05-09T08:00:42;13.02;;;11.68;;
25049;SDS011;13046;49.814;9.918;2023-05-09T08:03:08;12.93;;;11.48;;
25049;SDS011;13046;49.814;9.918;2023-05-09T08:05:33;11.95;;;10.10;;
25049;SDS011;13046;49.814;9.918;2023-05-09T08:07:59;9.68;;;8.77;;
25049;SDS011;13046;49.814;9.918;2023-05-09T08:10:25;10.25;;;9.32;;
25049;SDS011;13046;49.814;9.918;2023-05-09T08:12:54;10.50;;;9.60;;
25049;SDS011;13046;49.814;9.918;2023-05-09T08:15:20;12.15;;;10.95;;
25049;SDS011;13046;49.814;9.918;2023-05-09T08:17:46;12.38;;;9.65;;
25049;SDS011;13046;49.814;9.918;2023-05-09T08:20:11;12.23;;;10.98;;
25049;SDS011;13046;49.814;9.918;2023-05-09T08:22:37;11.63;;;10.40;;
25049;SDS011;13046;49.814;9.918;2023-05-09T08:25:04;11.73;;;10.70;;
25049;SDS011;13046;49.814;9.918;2023-05-09T08:27:31;11.60;;;10.60;;
25049;SDS011;13046;49.814;9.918;2023-05-09T08:29:56;11.10;;;9.98;;
25049;SDS011;13046;49.814;9.918;2023-05-09T08:32:22;11.65;;;9.88;;
25049;SDS011;13046;49.814;9.918;2023-05-09T08:34:49;12.18;;;11.13;;
25049;SDS011;13046;49.814;9.918;2023-05-09T08:37:14;11.95;;;10.80;;
25049;SDS011;13046;49.814;9.918;2023-05-09T08:39:40;11.57;;;10.48;;
25049;SDS011;13046;49.814;9.918;2023-05-09T08:42:05;10.43;;;9.40;;
25049;SDS011;13046;49.814;9.918;2023-05-09T08:44:33;11.52;;;10.57;;
25049;SDS011;13046;49.814;9.918;2023-05-09T08:47:00;10.75;;;9.77;;
25049;SDS011;13046;49.814;9.918;2023-05-09T08:49:27;11.05;;;9.95;;
25049;SDS011;13046;49.814;9.918;2023-05-09T08:51:53;10.75;;;9.85;;
25049;SDS011;13046;49.814;9.918;2023-05-09T08:54:19;11.52;;;10.30;;
25049;SDS011;13046;49.814;9.918;2023-05-09T08:56:46;10.88;;;9.40;;
25049;SDS011;13046;49.814;9.918;2023-05-09T08:59:12;11.50;;;10.23;;
25049;SDS011;13046;49.814;9.918;2023-05-09T09:01:39;11.50;;;10.40;;
25049;SDS011;13046;49.814;9.918;2023-05-09T09:04:05;10.38;;;9.48;;
25049;SDS011;13046;49.814;9.918;2023-05-09T09:06:35;8.68;;;7.65;;
25049;SDS011;13046;49.814;9.918;2023-05-09T09:09:01;12.00;;;8.02;;
25049;SDS011;13046;49.814;9.918;2023-05-09T09:11:35;8.98;;;8.18;;
25049;SDS011;13046;49.814;9.918;2023-05-09T09:14:10;9.35;;;8.45;;
25049;SDS011;13046;49.814;9.918;2023-05-09T09:16:42;8.85;;;7.63;;
25049;SDS011;13046;49.814;9.918;2023-05-09T09:19:11;8.30;;;7.45;;
25049;SDS011;13046;49.814;9.918;2023-05-09T09:21:38;9.48;;;8.57;;
25049;SDS011;13046;49.814;9.918;2023-05-09T09:24:06;8.90;;;8.00;;
25049;SDS011;13046;49.814;9.918;2023-05-09T09:26:32;8.27;;;7.50;;
25049;SDS011;13046;49.814;9.918;2023-05-09T09:28:58;8.73;;;7.20;;
25049;SDS011;13046;49.814;9.918;2023-05-09T09:31:25;9.07;;;8.18;;
25049;SDS011;13046;49.814;9.918;2023-05-09T09:33:57;6.97;;;6.40;;
25049;SDS011;13046;49.814;9.918;2023-05-09T09:36:30;6.10;;;5.50;;
25049;SDS011;13046;49.814;9.918;2023-05-09T09:39:02;7.00;;;6.28;;
25049;SDS011;13046;49.814;9.918;2023-05-09T09:41:32;8.50;;;5.13;;
25049;SDS011;13046;49.814;9.918;2023-05-09T09:44:06;5.45;;;4.95;;
25049;SDS011;13046;49.814;9.918;2023-05-09T09:46:43;8.20;;;3.85;;
25049;SDS011;13046;49.814;9.918;2023-05-09T09:49:14;5.97;;;4.43;;
25049;SDS011;13046;49.814;9.918;2023-05-09T09:51:41;5.32;;;4.20;;
25049;SDS011;13046;49.814;9.918;2023-05-09T09:54:08;4.75;;;4.35;;
25049;SDS011;13046;49.814;9.918;2023-05-09T09:56:38;4.68;;;4.28;;
25049;SDS011;13046;49.814;9.918;2023-05-09T09:59:12;3.72;;;3.50;;
25049;SDS011;13046;49.814;9.918;2023-05-09T10:04:18;6.43;;;4.30;;
25049;SDS011;13046;49.814;9.918;2023-05-09T10:06:57;4.80;;;4.07;;
25049;SDS011;13046;49.814;9.918;2023-05-09T10:09:25;4.95;;;4.22;;
25049;SDS011;13046;49.814;9.918;2023-05-09T10:11:52;7.45;;;4.53;;
25049;SDS011;13046;49.814;9.918;2023-05-09T10:14:20;5.53;;;4.05;;
25049;SDS011;13046;49.814;9.918;2023-05-09T10:16:47;8.45;;;5.28;;
25049;SDS011;13046;49.814;9.918;2023-05-09T10:19:18;5.07;;;4.10;;
25049;SDS011;13046;49.814;9.918;2023-05-09T10:21:48;4.80;;;4.40;;
25049;SDS011;13046;49.814;9.918;2023-05-09T10:24:26;5.07;;;4.57;;
25049;SDS011;13046;49.814;9.918;2023-05-09T10:27:01;4.78;;;4.10;;
25049;SDS011;13046;49.814;9.918;2023-05-09T10:29:33;6.20;;;4.03;;
25049;SDS011;13046;49.814;9.918;2023-05-09T10:34:50;4.43;;;4.03;;
25049;SDS011;13046;49.814;9.918;2023-05-09T10:37:19;8.43;;;5.22;;
25049;SDS011;13046;49.814;9.918;2023-05-09T10:39:45;4.82;;;4.43;;
25049;SDS011;13046;49.814;9.918;2023-05-09T10:42:17;6.13;;;4.90;;
25049;SDS011;13046;49.814;9.918;2023-05-09T10:44:44;5.82;;;4.45;;
25049;SDS011;13046;49.814;9.918;2023-05-09T10:47:11;3.90;;;3.50;;
25049;SDS011;13046;49.814;9.918;2023-05-09T10:49:37;3.78;;;3.47;;
25049;SDS011;13046;49.814;9.918;2023-05-09T10:52:03;4.72;;;4.35;;
25049;SDS011;13046;49.814;9.918;2023-05-09T10:54:29;4.68;;;4.28;;
25049;SDS011;13046;49.814;9.918;2023-05-09T10:56:58;4.63;;;4.22;;
25049;SDS011;13046;49.814;9.918;2023-05-09T10:59:35;4.07;;;3.78;;
25049;SDS011;13046;49.814;9.918;2023-05-09T11:02:10;4.80;;;4.35;;
25049;SDS011;13046;49.814;9.918;2023-05-09T11:04:38;4.47;;;3.63;;
25049;SDS011;13046;49.814;9.918;2023-05-09T11:07:06;5.43;;;5.03;;
25049;SDS011;13046;49.814;9.918;2023-05-09T11:10:07;5.07;;;4.57;;
25049;SDS011;13046;49.814;9.918;2023-05-09T11:12:34;4.55;;;4.15;;
25049;SDS011;13046;49.814;9.918;2023-05-09T11:15:20;5.93;;;5.40;;
25049;SDS011;13046;49.814;9.918;2023-05-09T11:17:48;6.13;;;5.53;;
25049;SDS011;13046;49.814;9.918;2023-05-09T11:20:15;5.57;;;4.97;;
25049;SDS011;13046;49.814;9.918;2023-05-09T11:22:42;4.93;;;4.40;;
25049;SDS011;13046;49.814;9.918;2023-05-09T11:25:14;4.68;;;4.28;;
25049;SDS011;13046;49.814;9.918;2023-05-09T11:27:41;7.60;;;5.53;;
25049;SDS011;13046;49.814;9.918;2023-05-09T11:30:10;4.78;;;4.40;;
25049;SDS011;13046;49.814;9.918;2023-05-09T11:32:42;5.28;;;4.75;;
25049;SDS011;13046;49.814;9.918;2023-05-09T11:40:28;6.90;;;4.38;;
25049;SDS011;13046;49.814;9.918;2023-05-09T11:42:55;3.97;;;3.30;;
25049;SDS011;13046;49.814;9.918;2023-05-09T11:45:23;4.50;;;4.10;;
25049;SDS011;13046;49.814;9.918;2023-05-09T11:47:53;5.53;;;3.80;;
25049;SDS011;13046;49.814;9.918;2023-05-09T11:50:21;7.60;;;4.28;;
25049;SDS011;13046;49.814;9.918;2023-05-09T11:52:47;5.45;;;3.83;;
25049;SDS011;13046;49.814;9.918;2023-05-09T11:55:18;3.95;;;3.50;;
25049;SDS011;13046;49.814;9.918;2023-05-09T11:57:46;10.85;;;3.50;;
25049;SDS011;13046;49.814;9.918;2023-05-09T12:00:17;5.22;;;3.38;;
25049;SDS011;13046;49.814;9.918;2023-05-09T12:02:45;4.05;;;3.70;;
25049;SDS011;13046;49.814;9.918;2023-05-09T12:05:15;3.40;;;3.10;;
25049;SDS011;13046;49.814;9.918;2023-05-09T12:07:43;3.45;;;3.25;;
25049;SDS011;13046;49.814;9.918;2023-05-09T12:10:10;3.20;;;2.90;;
25049;SDS011;13046;49.814;9.918;2023-05-09T12:12:41;5.82;;;3.47;;
25049;SDS011;13046;49.814;9.918;2023-05-09T12:15:12;4.15;;;3.83;;
25049;SDS011;13046;49.814;9.918;2023-05-09T12:17:39;3.97;;;3.67;;
25049;SDS011;13046;49.814;9.918;2023-05-09T12:20:08;11.13;;;4.13;;
25049;SDS011;13046;49.814;9.918;2023-05-09T12:22:35;3.75;;;3.45;;
25049;SDS011;13046;49.814;9.918;2023-05-09T12:25:05;5.03;;;3.53;;
25049;SDS011;13046;49.814;9.918;2023-05-09T12:27:33;3.92;;;3.63;;
25049;SDS011;13046;49.814;9.918;2023-05-09T12:30:00;3.75;;;3.55;;
25049;SDS011;13046;49.814;9.918;2023-05-09T12:32:28;3.15;;;2.95;;
25049;SDS011;13046;49.814;9.918;2023-05-09T12:34:57;3.15;;;2.90;;
25049;SDS011;13046;49.814;9.918;2023-05-09T12:37:23;3.50;;;3.20;;
25049;SDS011;13046;49.814;9.918;2023-05-09T12:42:45;4.35;;;4.03;;
25049;SDS011;13046;49.814;9.918;2023-05-09T12:45:10;5.72;;;3.80;;
25049;SDS011;13046;49.814;9.918;2023-05-09T12:47:37;4.22;;;3.45;;
25049;SDS011;13046;49.814;9.918;2023-05-09T12:50:09;4.20;;;3.35;;
25049;SDS011;13046;49.814;9.918;2023-05-09T12:52:39;4.72;;;3.40;;
25049;SDS011;13046;49.814;9.918;2023-05-09T12:55:07;4.88;;;4.38;;
25049;SDS011;13046;49.814;9.918;2023-05-09T12:57:35;3.88;;;3.22;;
25049;SDS011;13046;49.814;9.918;2023-05-09T13:00:03;4.28;;;3.28;;
25049;SDS011;13046;49.814;9.918;2023-05-09T13:02:36;3.03;;;2.72;;
25049;SDS011;13046;49.814;9.918;2023-05-09T13:07:41;3.35;;;3.15;;
25049;SDS011;13046;49.814;9.918;2023-05-09T13:10:09;3.50;;;2.97;;
25049;SDS011;13046;49.814;9.918;2023-05-09T13:12:47;3.10;;;2.90;;
25049;SDS011;13046;49.814;9.918;2023-05-09T13:15:17;5.47;;;3.65;;
25049;SDS011;13046;49.814;9.918;2023-05-09T13:17:45;4.18;;;3.42;;
25049;SDS011;13046;49.814;9.918;2023-05-09T13:20:14;4.07;;;3.30;;
25049;SDS011;13046;49.814;9.918;2023-05-09T13:22:41;3.88;;;3.58;;
25049;SDS011;13046;49.814;9.918;2023-05-09T13:25:08;7.50;;;3.80;;
25049;SDS011;13046;49.814;9.918;2023-05-09T13:27:34;9.60;;;5.10;;
25049;SDS011;13046;49.814;9.918;2023-05-09T13:29:59;3.92;;;3.63;;
25049;SDS011;13046;49.814;9.918;2023-05-09T13:32:25;4.70;;;3.70;;
25049;SDS011;13046;49.814;9.918;2023-05-09T13:34:51;3.25;;;2.95;;
25049;SDS011;13046;49.814;9.918;2023-05-09T13:37:17;3.25;;;2.95;;
25049;SDS011;13046;49.814;9.918;2023-05-09T13:39:42;3.00;;;2.80;;
25049;SDS011;13046;49.814;9.918;2023-05-09T13:42:08;3.08;;;2.88;;
25049;SDS011;13046;49.814;9.918;2023-05-09T13:44:34;3.13;;;2.80;;
25049;SDS011;13046;49.814;9.918;2023-05-09T13:46:59;4.70;;;3.20;;
25049;SDS011;13046;49.814;9.918;2023-05-09T13:49:25;3.85;;;3.10;;
25049;SDS011;13046;49.814;9.918;2023-05-09T13:51:54;3.38;;;3.05;;
25049;SDS011;13046;49.814;9.918;2023-05-09T13:54:20;2.95;;;2.70;;
25049;SDS011;13046;49.814;9.918;2023-05-09T13:56:47;2.85;;;2.60;;
25049;SDS011;13046;49.814;9.918;2023-05-09T13:59:13;4.32;;;3.25;;
25049;SDS011;13046;49.814;9.918;2023-05-09T14:01:39;3.05;;;2.78;;
25049;SDS011;13046;49.814;9.918;2023-05-09T14:04:05;3.33;;;3.03;;
25049;SDS011;13046;49.814;9.918;2023-05-09T14:06:31;5.00;;;3.22;;
25049;SDS011;13046;49.814;9.918;2023-05-09T14:08:58;3.00;;;2.42;;
25049;SDS011;13046;49.814;9.918;2023-05-09T14:11:23;5.75;;;2.97;;
25049;SDS011;13046;49.814;9.918;2023-05-09T14:13:50;3.30;;;2.90;;
25049;SDS011;13046;49.814;9.918;2023-05-09T14:16:17;3.90;;;2.30;;
25049;SDS011;13046;49.814;9.918;2023-05-09T14:18:43;4.00;;;3.60;;
25049;SDS011;13046;49.814;9.918;2023-05-09T14:21:09;4.05;;;2.47;;
25049;SDS011;13046;49.814;9.918;2023-05-09T14:23:34;3.30;;;2.78;;
25049;SDS011;13046;49.814;9.918;2023-05-09T14:26:00;2.80;;;2.47;;
25049;SDS011;13046;49.814;9.918;2023-05-09T14:28:26;3.78;;;2.35;;
25049;SDS011;13046;49.814;9.918;2023-05-09T14:30:51;3.05;;;2.47;;
25049;SDS011;13046;49.814;9.918;2023-05-09T14:33:17;3.20;;;2.88;;
25049;SDS011;13046;49.814;9.918;2023-05-09T14:35:43;2.42;;;2.28;;
25049;SDS011;13046;49.814;9.918;2023-05-09T14:38:09;2.78;;;2.40;;
25049;SDS011;13046;49.814;9.918;2023-05-09T14:40:36;2.50;;;2.35;;
25049;SDS011;13046;49.814;9.918;2023-05-09T14:43:02;2.53;;;2.33;;
25049;SDS011;13046;49.814;9.918;2023-05-09T14:45:28;3.70;;;2.78;;
25049;SDS011;13046;49.814;9.918;2023-05-09T14:47:55;3.53;;;2.38;;
25049;SDS011;13046;49.814;9.918;2023-05-09T14:50:21;3.50;;;2.50;;
25049;SDS011;13046;49.814;9.918;2023-05-09T14:52:47;2.70;;;2.50;;
25049;SDS011;13046;49.814;9.918;2023-05-09T14:55:15;2.70;;;2.50;;
25049;SDS011;13046;49.814;9.918;2023-05-09T14:57:44;2.70;;;2.50;;
25049;SDS011;13046;49.814;9.918;2023-05-09T15:00:10;2.80;;;2.60;;
25049;SDS011;13046;49.814;9.918;2023-05-09T15:02:36;3.30;;;3.10;;